Time;durP1;ratioP1;P1;durP2;ratioP2;P2;SDS_P1;SDS_P2;PMS_P1;PMS_P2;Temp;Humidity;BMP_temperature;BMP_pressure;BME280_temperature;BME280_humidity;BME280_pressure;Samples;Min_cycle;Max_cycle;Signal;HPM_P1;HPM_P2
2022/07/07 00:00:12;;;;;;;0.60;0.60;;;;;15.60;98946.00;;;;5116550;28;20198;-75
2022/07/07 00:02:41;;;;;;;0.63;0.63;;;;;15.60;98939.00;;;;5116476;28;20218;-75
2022/07/07 00:05:08;;;;;;;0.53;0.53;;;;;15.60;98947.00;;;;5116188;28;20222;-74
2022/07/07 00:07:35;;;;;;;1.90;0.87;;;;;15.60;98942.00;;;;5115660;28;20660;-74
2022/07/07 00:10:04;;;;;;;0.73;0.73;;;;;15.70;98943.00;;;;5116311;28;20189;-74
2022/07/07 00:12:31;;;;;;;0.83;0.83;;;;;15.70;98931.00;;;;5115948;28;20294;-75
2022/07/07 00:14:58;;;;;;;0.80;0.80;;;;;15.70;98937.00;;;;5116220;28;20224;-75
2022/07/07 00:17:27;;;;;;;0.63;0.63;;;;;15.60;98941.00;;;;5116010;28;20200;-74
2022/07/07 00:19:54;;;;;;;0.53;0.53;;;;;15.50;98941.00;;;;5116001;28;20194;-74
2022/07/07 00:22:23;;;;;;;0.80;0.80;;;;;15.50;98943.00;;;;5116113;28;20297;-75
2022/07/07 00:24:50;;;;;;;0.70;0.70;;;;;15.60;98934.00;;;;5098282;28;20225;-75
2022/07/07 00:27:19;;;;;;;0.80;0.80;;;;;15.60;98931.00;;;;5116005;28;20681;-75
2022/07/07 00:29:46;;;;;;;0.60;0.60;;;;;15.60;98930.00;;;;5116021;28;20587;-75
2022/07/07 00:32:13;;;;;;;1.27;0.80;;;;;15.60;98927.00;;;;5115860;28;20288;-76
2022/07/07 00:34:42;;;;;;;0.63;0.63;;;;;15.60;98924.00;;;;5115869;28;20633;-75
2022/07/07 00:37:08;;;;;;;0.60;0.60;;;;;15.70;98928.00;;;;5115865;28;20185;-75
2022/07/07 00:39:35;;;;;;;0.60;0.60;;;;;15.70;98926.00;;;;5117098;28;20201;-74
2022/07/07 00:42:05;;;;;;;0.70;0.70;;;;;15.60;98923.00;;;;5117588;28;20196;-76
2022/07/07 00:44:32;;;;;;;0.60;0.60;;;;;15.70;98924.00;;;;5115784;28;20251;-74
2022/07/07 00:46:59;;;;;;;0.43;0.43;;;;;15.80;98921.00;;;;5115537;28;20221;-74
2022/07/07 00:49:26;;;;;;;0.70;0.70;;;;;15.70;98918.00;;;;5115585;28;20210;-77
2022/07/07 00:51:53;;;;;;;0.60;0.60;;;;;15.70;98911.00;;;;5115435;28;20575;-73
2022/07/07 00:54:22;;;;;;;0.90;0.90;;;;;15.70;98920.00;;;;5115507;28;20187;-73
2022/07/07 00:56:49;;;;;;;0.60;0.60;;;;;15.70;98914.00;;;;5115472;28;20208;-75
2022/07/07 00:59:16;;;;;;;0.60;0.60;;;;;15.70;98908.00;;;;5115430;28;20251;-76
2022/07/07 01:01:44;;;;;;;0.63;0.63;;;;;15.70;98909.00;;;;5115297;28;20186;-75
2022/07/07 01:04:13;;;;;;;0.60;0.60;;;;;15.70;98907.00;;;;5115550;28;20241;-76
2022/07/07 01:06:40;;;;;;;0.63;0.63;;;;;15.80;98913.00;;;;5097609;28;20283;-75
2022/07/07 01:09:08;;;;;;;0.77;0.77;;;;;15.80;98904.00;;;;5115245;28;20236;-75
2022/07/07 01:11:49;;;;;;;0.60;0.60;;;;;15.70;98901.00;;;;5097371;28;20225;-75
2022/07/07 01:14:18;;;;;;;0.60;0.60;;;;;15.70;98899.00;;;;5115830;28;20194;-75
2022/07/07 01:16:47;;;;;;;0.50;0.50;;;;;15.70;98900.00;;;;5119136;28;20587;-75
2022/07/07 01:19:15;;;;;;;0.60;0.60;;;;;15.70;98902.00;;;;5114982;28;20202;-75
2022/07/07 01:21:52;;;;;;;0.83;0.83;;;;;15.70;98894.00;;;;5116038;28;20285;-75
2022/07/07 01:24:24;;;;;;;0.50;0.50;;;;;15.80;98903.00;;;;5097698;28;20232;-73
2022/07/07 01:27:03;;;;;;;7.73;2.20;;;;;15.80;98891.00;;;;5115250;28;20220;-75
2022/07/07 01:29:33;;;;;;;0.67;0.67;;;;;16.00;98893.00;;;;5115428;28;20200;-75
2022/07/07 01:32:00;;;;;;;0.77;0.77;;;;;15.80;98895.00;;;;5114947;28;20214;-75
2022/07/07 01:34:26;;;;;;;1.37;1.27;;;;;15.90;98894.00;;;;5115200;28;20209;-76
2022/07/07 01:36:55;;;;;;;0.50;0.50;;;;;15.80;98884.00;;;;5114993;28;20659;-75
2022/07/07 01:39:23;;;;;;;0.70;0.70;;;;;15.80;98884.00;;;;5115069;28;20202;-75
2022/07/07 01:41:50;;;;;;;0.93;0.93;;;;;15.80;98877.00;;;;5115019;28;20193;-75
2022/07/07 01:44:17;;;;;;;0.80;0.80;;;;;15.80;98881.00;;;;5114939;28;20225;-75
2022/07/07 01:46:43;;;;;;;0.50;0.50;;;;;15.90;98866.00;;;;5114727;28;20762;-75
2022/07/07 01:49:10;;;;;;;0.77;0.77;;;;;16.00;98863.00;;;;5114986;28;20197;-75
2022/07/07 01:51:37;;;;;;;0.40;0.40;;;;;15.80;98861.00;;;;5114837;28;20224;-75
2022/07/07 01:54:04;;;;;;;0.77;0.77;;;;;15.80;98856.00;;;;5114704;28;20198;-73
2022/07/07 01:56:32;;;;;;;0.60;0.60;;;;;15.80;98852.00;;;;5114659;28;20202;-75
2022/07/07 01:58:59;;;;;;;0.50;0.50;;;;;15.80;98856.00;;;;5114731;28;20186;-75
2022/07/07 02:01:28;;;;;;;0.70;0.70;;;;;15.90;98857.00;;;;5114610;28;20186;-75
2022/07/07 02:03:54;;;;;;;0.80;0.80;;;;;15.80;98857.00;;;;5114552;28;20221;-75
2022/07/07 02:06:22;;;;;;;0.73;0.73;;;;;15.70;98863.00;;;;5114819;28;20600;-75
2022/07/07 02:08:48;;;;;;;0.60;0.60;;;;;15.80;98867.00;;;;5114611;28;20705;-75
2022/07/07 02:11:18;;;;;;;0.80;0.80;;;;;15.70;98863.00;;;;5114462;28;20220;-75
2022/07/07 02:13:47;;;;;;;0.63;0.63;;;;;15.70;98860.00;;;;5114626;28;20194;-75
2022/07/07 02:16:15;;;;;;;0.90;0.90;;;;;15.70;98862.00;;;;5114476;28;20198;-75
2022/07/07 02:18:43;;;;;;;0.70;0.70;;;;;15.60;98866.00;;;;5114297;28;20242;-75
2022/07/07 02:21:12;;;;;;;0.57;0.57;;;;;15.70;98874.00;;;;5114494;28;20338;-75
2022/07/07 02:23:40;;;;;;;1.37;0.90;;;;;15.70;98871.00;;;;5114099;28;20194;-73
2022/07/07 02:26:09;;;;;;;0.50;0.50;;;;;15.70;98867.00;;;;5114227;28;20209;-75
2022/07/07 02:28:37;;;;;;;1.03;1.03;;;;;15.70;98868.00;;;;5114183;28;20200;-75
2022/07/07 02:31:04;;;;;;;0.40;0.40;;;;;15.80;98873.00;;;;5113865;28;20220;-75
2022/07/07 02:33:34;;;;;;;0.60;0.60;;;;;15.80;98873.00;;;;5114171;28;20209;-75
2022/07/07 02:36:01;;;;;;;0.50;0.50;;;;;15.80;98868.00;;;;5114318;28;20226;-75
2022/07/07 02:38:28;;;;;;;0.70;0.70;;;;;15.70;98867.00;;;;5114233;28;20269;-75
2022/07/07 02:40:57;;;;;;;0.50;0.50;;;;;15.70;98867.00;;;;5114101;28;20194;-76
2022/07/07 02:43:26;;;;;;;0.70;0.70;;;;;15.80;98864.00;;;;5114022;28;20676;-76
2022/07/07 02:45:55;;;;;;;1.03;0.83;;;;;15.70;98868.00;;;;5114221;28;20529;-75
2022/07/07 02:48:25;;;;;;;0.60;0.60;;;;;15.80;98864.00;;;;5113941;28;20296;-75
2022/07/07 02:50:52;;;;;;;0.50;0.50;;;;;15.80;98860.00;;;;5095865;28;20673;-75
2022/07/07 02:53:20;;;;;;;0.60;0.60;;;;;15.80;98851.00;;;;5095886;28;20263;-75
2022/07/07 02:55:49;;;;;;;1.00;1.00;;;;;15.80;98850.00;;;;5113702;28;20201;-75
2022/07/07 02:58:19;;;;;;;0.50;0.50;;;;;15.80;98856.00;;;;5113829;28;20229;-76
2022/07/07 03:00:49;;;;;;;1.03;0.80;;;;;15.60;98851.00;;;;5113673;28;20285;-75
2022/07/07 03:03:16;;;;;;;0.63;0.63;;;;;15.70;98851.00;;;;5113610;28;20186;-75
2022/07/07 03:05:44;;;;;;;0.57;0.57;;;;;15.60;98841.00;;;;5113682;28;20198;-75
2022/07/07 03:08:10;;;;;;;0.70;0.70;;;;;15.60;98844.00;;;;5113442;28;20221;-75
2022/07/07 03:10:40;;;;;;;0.60;0.60;;;;;15.50;98845.00;;;;5113542;28;20346;-75
2022/07/07 03:13:09;;;;;;;0.60;0.60;;;;;15.60;98842.00;;;;5113501;28;20190;-74
2022/07/07 03:15:36;;;;;;;1.33;0.80;;;;;15.60;98835.00;;;;5113434;28;20190;-74
2022/07/07 03:18:03;;;;;;;0.60;0.60;;;;;15.40;98839.00;;;;5113308;28;20221;-74
2022/07/07 03:20:30;;;;;;;0.50;0.50;;;;;15.60;98833.00;;;;5113345;28;20206;-74
2022/07/07 03:22:57;;;;;;;0.60;0.60;;;;;15.40;98837.00;;;;5113499;28;20182;-74
2022/07/07 03:25:24;;;;;;;0.80;0.80;;;;;15.40;98829.00;;;;5113510;28;20216;-74
2022/07/07 03:27:51;;;;;;;0.70;0.70;;;;;15.50;98831.00;;;;5113472;28;20229;-74
2022/07/07 03:30:18;;;;;;;2.90;0.70;;;;;15.50;98830.00;;;;5113306;28;20228;-73
2022/07/07 03:32:47;;;;;;;0.50;0.50;;;;;15.50;98827.00;;;;5113561;28;20194;-74
2022/07/07 03:35:14;;;;;;;0.70;0.70;;;;;15.60;98827.00;;;;5113405;28;20198;-74
2022/07/07 03:37:40;;;;;;;0.50;0.50;;;;;15.60;98825.00;;;;5113260;28;20661;-74
2022/07/07 03:40:09;;;;;;;0.80;0.80;;;;;15.50;98822.00;;;;5113350;28;20194;-75
2022/07/07 03:42:38;;;;;;;0.50;0.50;;;;;15.60;98816.00;;;;5114601;28;20230;-74
2022/07/07 03:45:06;;;;;;;0.83;0.83;;;;;15.60;98812.00;;;;5116618;28;20219;-74
2022/07/07 03:47:33;;;;;;;0.50;0.50;;;;;15.50;98812.00;;;;5116574;28;20210;-75
2022/07/07 03:50:00;;;;;;;0.60;0.60;;;;;15.30;98806.00;;;;5116733;28;20185;-74
2022/07/07 03:52:27;;;;;;;0.40;0.40;;;;;15.40;98803.00;;;;5116724;28;20202;-74
2022/07/07 03:54:54;;;;;;;1.27;1.27;;;;;15.50;98812.00;;;;5116633;28;20190;-74
2022/07/07 03:57:21;;;;;;;0.60;0.60;;;;;15.50;98808.00;;;;5098703;28;20234;-75
2022/07/07 03:59:48;;;;;;;0.67;0.67;;;;;15.50;98810.00;;;;5116512;28;20217;-74
2022/07/07 04:02:15;;;;;;;1.13;1.03;;;;;15.70;98804.00;;;;5116447;28;20201;-75
2022/07/07 04:04:42;;;;;;;0.60;0.60;;;;;15.60;98811.00;;;;5098909;28;20236;-74
2022/07/07 04:07:09;;;;;;;0.50;0.50;;;;;15.70;98816.00;;;;5117130;28;20533;-75
2022/07/07 04:09:36;;;;;;;0.60;0.60;;;;;15.70;98816.00;;;;5117083;28;20206;-74
2022/07/07 04:12:03;;;;;;;0.77;0.70;;;;;15.70;98816.00;;;;5117297;28;20251;-75
2022/07/07 04:14:33;;;;;;;0.50;0.50;;;;;15.80;98831.00;;;;5117300;28;20255;-76
2022/07/07 04:17:00;;;;;;;0.60;0.60;;;;;15.80;98826.00;;;;5116681;28;20656;-74
2022/07/07 04:19:29;;;;;;;0.70;0.70;;;;;15.70;98828.00;;;;5116848;28;20245;-75
2022/07/07 04:21:58;;;;;;;0.70;0.70;;;;;15.70;98822.00;;;;5117244;28;20201;-76
2022/07/07 04:24:25;;;;;;;0.57;0.57;;;;;15.60;98814.00;;;;5098908;28;20218;-75
2022/07/07 04:26:51;;;;;;;0.50;0.50;;;;;15.80;98814.00;;;;5099395;28;20545;-75
2022/07/07 04:29:21;;;;;;;0.60;0.60;;;;;15.70;98814.00;;;;5117586;28;20190;-74
2022/07/07 04:31:48;;;;;;;0.60;0.60;;;;;15.80;98803.00;;;;5124845;28;20233;-74
2022/07/07 04:34:15;;;;;;;0.50;0.50;;;;;15.80;98798.00;;;;5121263;28;20194;-73
2022/07/07 04:36:44;;;;;;;1.10;1.03;;;;;15.80;98800.00;;;;5117902;28;20232;-74
2022/07/07 04:39:11;;;;;;;1.20;1.20;;;;;15.80;98792.00;;;;5115875;28;20190;-74
2022/07/07 04:41:38;;;;;;;25.67;1.80;;;;;15.90;98808.00;;;;5116091;28;20185;-75
2022/07/07 04:44:05;;;;;;;0.60;0.60;;;;;15.70;98811.00;;;;5115765;28;20548;-74
2022/07/07 04:46:34;;;;;;;1.17;1.17;;;;;15.70;98804.00;;;;5115592;28;20267;-74
2022/07/07 04:49:04;;;;;;;0.60;0.60;;;;;15.70;98807.00;;;;5115719;28;20190;-74
2022/07/07 04:51:31;;;;;;;0.70;0.70;;;;;15.60;98799.00;;;;5115796;28;20190;-74
2022/07/07 04:53:58;;;;;;;0.50;0.50;;;;;15.70;98803.00;;;;5097731;28;20617;-73
2022/07/07 04:56:25;;;;;;;0.60;0.60;;;;;15.60;98800.00;;;;5115556;28;20224;-75
2022/07/07 04:58:54;;;;;;;0.63;0.63;;;;;15.60;98792.00;;;;5115613;28;20194;-74
2022/07/07 05:01:21;;;;;;;0.80;0.80;;;;;15.60;98796.00;;;;5115458;28;20206;-74
2022/07/07 05:03:48;;;;;;;0.60;0.60;;;;;15.60;98795.00;;;;5115312;28;20294;-74
2022/07/07 05:06:15;;;;;;;0.77;0.77;;;;;15.60;98783.00;;;;5115239;28;20198;-74
2022/07/07 05:08:42;;;;;;;0.90;0.90;;;;;15.80;98782.00;;;;5115376;28;20186;-74
2022/07/07 05:11:09;;;;;;;0.43;0.43;;;;;15.90;98779.00;;;;5115254;28;20217;-74
2022/07/07 05:13:36;;;;;;;0.60;0.60;;;;;15.80;98791.00;;;;5115342;28;20656;-75
2022/07/07 05:16:05;;;;;;;0.70;0.70;;;;;16.00;98781.00;;;;5115260;28;20213;-74
2022/07/07 05:18:32;;;;;;;0.60;0.60;;;;;16.10;98788.00;;;;5115165;28;20205;-73
2022/07/07 05:20:59;;;;;;;0.70;0.70;;;;;15.90;98792.00;;;;5115230;28;20196;-74
2022/07/07 05:23:27;;;;;;;0.57;0.57;;;;;16.00;98785.00;;;;5115007;28;20313;-73
2022/07/07 05:25:54;;;;;;;6.87;1.03;;;;;16.00;98782.00;;;;5115064;28;20190;-74
2022/07/07 05:28:21;;;;;;;1.37;1.27;;;;;16.10;98791.00;;;;5114995;28;20236;-74
2022/07/07 05:30:48;;;;;;;0.50;0.50;;;;;16.30;98783.00;;;;5097181;28;20221;-74
2022/07/07 05:33:15;;;;;;;1.00;1.00;;;;;16.30;98783.00;;;;5114902;28;20335;-74
2022/07/07 05:35:42;;;;;;;0.73;0.70;;;;;16.30;98784.00;;;;5114927;28;20624;-74
2022/07/07 05:38:09;;;;;;;0.57;0.57;;;;;16.40;98783.00;;;;5115106;28;20220;-74
2022/07/07 05:40:37;;;;;;;0.97;0.97;;;;;16.40;98776.00;;;;5114870;28;20185;-75
2022/07/07 05:43:03;;;;;;;1.57;1.47;;;;;16.60;98774.00;;;;5114959;28;20226;-75
2022/07/07 05:45:31;;;;;;;0.50;0.50;;;;;17.10;98765.00;;;;5114859;28;20206;-74
2022/07/07 05:47:57;;;;;;;0.80;0.80;;;;;17.30;98774.00;;;;5114622;28;20218;-74
2022/07/07 05:50:24;;;;;;;0.80;0.80;;;;;17.40;98770.00;;;;5114675;28;20236;-75
2022/07/07 05:52:51;;;;;;;0.60;0.60;;;;;17.60;98763.00;;;;5114707;28;20710;-75
2022/07/07 05:55:18;;;;;;;0.70;0.70;;;;;17.60;98766.00;;;;5114599;28;20221;-74
2022/07/07 05:57:46;;;;;;;7.67;2.20;;;;;17.70;98771.00;;;;5096681;28;20644;-75
2022/07/07 06:00:13;;;;;;;0.83;0.70;;;;;17.70;98766.00;;;;5114700;28;20201;-74
2022/07/07 06:02:40;;;;;;;1.33;1.13;;;;;17.80;98765.00;;;;5114431;28;20238;-74
2022/07/07 06:05:08;;;;;;;0.60;0.60;;;;;18.00;98766.00;;;;5096019;28;20709;-74
2022/07/07 06:07:37;;;;;;;0.50;0.50;;;;;18.00;98774.00;;;;5114405;28;20229;-73
2022/07/07 06:10:07;;;;;;;1.00;1.00;;;;;18.20;98770.00;;;;5116309;28;20226;-80
2022/07/07 06:12:34;;;;;;;0.60;0.60;;;;;18.20;98767.00;;;;5114899;28;20277;-79
2022/07/07 06:15:02;;;;;;;0.70;0.70;;;;;18.30;98770.00;;;;5114651;28;20204;-79
2022/07/07 06:17:29;;;;;;;0.50;0.50;;;;;18.40;98776.00;;;;5115152;28;20202;-79
2022/07/07 06:19:58;;;;;;;0.50;0.50;;;;;18.40;98769.00;;;;5096775;28;20206;-80
2022/07/07 06:22:25;;;;;;;5.60;1.03;;;;;18.60;98762.00;;;;5114416;28;20214;-79
2022/07/07 06:24:52;;;;;;;0.80;0.80;;;;;18.70;98770.00;;;;5114364;28;20201;-76
2022/07/07 06:27:19;;;;;;;0.60;0.60;;;;;18.70;98764.00;;;;5114391;28;20225;-78
2022/07/07 06:29:46;;;;;;;2.77;0.93;;;;;18.90;98761.00;;;;5114213;28;20210;-80
2022/07/07 06:32:15;;;;;;;0.60;0.60;;;;;18.90;98753.00;;;;5114170;28;20212;-76
2022/07/07 06:34:42;;;;;;;1.87;1.73;;;;;19.20;98768.00;;;;5114140;28;20186;-75
2022/07/07 06:37:08;;;;;;;0.50;0.50;;;;;19.30;98765.00;;;;5114279;28;20235;-77
2022/07/07 06:39:38;;;;;;;0.50;0.50;;;;;19.40;98765.00;;;;5096204;28;20271;-76
2022/07/07 06:42:05;;;;;;;0.50;0.50;;;;;19.50;98759.00;;;;5114262;28;20225;-77
2022/07/07 06:44:32;;;;;;;0.80;0.80;;;;;19.30;98755.00;;;;5096104;28;20266;-75
2022/07/07 06:47:01;;;;;;;0.60;0.60;;;;;19.50;98765.00;;;;5113992;28;20233;-75
2022/07/07 06:49:29;;;;;;;2.30;1.20;;;;;19.70;98757.00;;;;5113941;28;20285;-78
2022/07/07 06:51:56;;;;;;;0.80;0.80;;;;;19.80;98755.00;;;;5113823;28;20196;-76
2022/07/07 06:54:23;;;;;;;0.40;0.40;;;;;20.00;98759.00;;;;5113814;28;20248;-76
2022/07/07 06:56:50;;;;;;;0.60;0.60;;;;;20.00;98763.00;;;;5113908;28;20206;-76
2022/07/07 06:59:19;;;;;;;0.50;0.50;;;;;20.00;98756.00;;;;5113843;28;20197;-75
2022/07/07 07:01:48;;;;;;;0.40;0.40;;;;;20.10;98755.00;;;;5113905;28;20732;-77
2022/07/07 07:04:15;;;;;;;0.50;0.50;;;;;20.10;98766.00;;;;5113985;28;20200;-78
2022/07/07 07:06:43;;;;;;;0.67;0.67;;;;;20.20;98772.00;;;;5113744;28;20221;-75
2022/07/07 07:09:13;;;;;;;0.60;0.60;;;;;20.00;98768.00;;;;5095813;28;20194;-74
2022/07/07 07:11:39;;;;;;;0.50;0.50;;;;;20.20;98769.00;;;;5113645;28;20194;-74
2022/07/07 07:14:06;;;;;;;0.50;0.50;;;;;20.50;98775.00;;;;5113468;28;20688;-73
2022/07/07 07:16:33;;;;;;;0.70;0.70;;;;;20.50;98770.00;;;;5113626;28;20547;-78
2022/07/07 07:19:00;;;;;;;5.50;0.83;;;;;20.40;98777.00;;;;5117086;28;20240;-80
2022/07/07 07:21:27;;;;;;;0.40;0.40;;;;;20.30;98769.00;;;;5117427;28;20190;-78
2022/07/07 07:23:55;;;;;;;0.60;0.60;;;;;20.30;98776.00;;;;5117060;28;20193;-79
2022/07/07 07:26:22;;;;;;;1.53;1.43;;;;;20.50;98770.00;;;;5117004;28;20684;-78
2022/07/07 07:28:49;;;;;;;0.43;0.43;;;;;20.50;98775.00;;;;5117082;28;20213;-81
2022/07/07 07:31:16;;;;;;;0.60;0.60;;;;;20.40;98777.00;;;;5117078;28;20190;-78
2022/07/07 07:33:43;;;;;;;0.50;0.50;;;;;20.30;98782.00;;;;5116852;28;20214;-78
2022/07/07 07:36:10;;;;;;;0.40;0.40;;;;;20.30;98795.00;;;;5116889;28;20201;-75
2022/07/07 07:38:39;;;;;;;0.40;0.40;;;;;20.30;98801.00;;;;5116754;28;20288;-76
2022/07/07 07:41:08;;;;;;;0.40;0.40;;;;;20.40;98800.00;;;;5116767;28;20293;-74
2022/07/07 07:43:35;;;;;;;0.97;0.97;;;;;20.40;98808.00;;;;5116800;28;20194;-76
2022/07/07 07:46:02;;;;;;;2.03;0.53;;;;;20.60;98813.00;;;;5116578;28;20268;-75
2022/07/07 07:48:29;;;;;;;0.30;0.30;;;;;20.70;98819.00;;;;5098637;28;20605;-75
2022/07/07 07:50:56;;;;;;;0.60;0.60;;;;;20.60;98825.00;;;;5116606;28;20229;-76
2022/07/07 07:53:23;;;;;;;0.50;0.50;;;;;20.40;98825.00;;;;5116780;28;20194;-76
2022/07/07 07:55:53;;;;;;;0.50;0.50;;;;;20.40;98819.00;;;;5116563;28;20217;-76
2022/07/07 07:58:21;;;;;;;1.53;0.83;;;;;20.10;98823.00;;;;5116435;28;20304;-76
2022/07/07 08:00:47;;;;;;;0.60;0.60;;;;;20.10;98830.00;;;;5116535;28;20197;-77
2022/07/07 08:03:17;;;;;;;0.50;0.50;;;;;20.00;98834.00;;;;5116453;28;20560;-77
2022/07/07 08:05:46;;;;;;;0.40;0.40;;;;;20.10;98826.00;;;;5098464;28;20271;-78
2022/07/07 08:08:13;;;;;;;0.50;0.50;;;;;19.70;98825.00;;;;5119585;28;20274;-77
2022/07/07 08:10:42;;;;;;;0.60;0.60;;;;;19.80;98816.00;;;;5116471;28;20309;-76
2022/07/07 08:13:09;;;;;;;0.83;0.83;;;;;19.70;98810.00;;;;5116685;28;20198;-75
2022/07/07 08:15:38;;;;;;;0.40;0.40;;;;;19.70;98801.00;;;;5116381;28;20241;-75
2022/07/07 08:18:05;;;;;;;0.50;0.50;;;;;19.70;98795.00;;;;5116170;28;20270;-74
2022/07/07 08:20:32;;;;;;;0.50;0.50;;;;;19.90;98782.00;;;;5115908;28;20206;-76
2022/07/07 08:22:59;;;;;;;0.97;0.93;;;;;20.20;98791.00;;;;5115772;28;20195;-75
2022/07/07 08:25:26;;;;;;;0.70;0.70;;;;;20.10;98788.00;;;;5098201;28;20212;-76
2022/07/07 08:27:53;;;;;;;0.60;0.60;;;;;20.10;98795.00;;;;5115450;28;20221;-76
2022/07/07 08:30:20;;;;;;;0.57;0.57;;;;;20.20;98798.00;;;;5116184;28;20253;-76
2022/07/07 08:32:47;;;;;;;0.60;0.60;;;;;20.40;98791.00;;;;5115950;28;20202;-78
2022/07/07 08:35:14;;;;;;;0.97;0.97;;;;;20.40;98792.00;;;;5116134;28;20783;-76
2022/07/07 08:37:44;;;;;;;0.50;0.50;;;;;20.50;98792.00;;;;5097768;28;20202;-74
2022/07/07 08:40:11;;;;;;;1.63;1.53;;;;;20.50;98795.00;;;;5115867;28;20186;-78
2022/07/07 08:42:38;;;;;;;0.50;0.50;;;;;20.50;98788.00;;;;5115661;28;20224;-77
2022/07/07 08:45:06;;;;;;;0.90;0.90;;;;;20.60;98799.00;;;;5115814;28;20643;-76
2022/07/07 08:47:33;;;;;;;0.87;0.87;;;;;20.80;98786.00;;;;5115762;28;20631;-78
2022/07/07 08:50:01;;;;;;;0.70;0.70;;;;;20.80;98776.00;;;;5115726;28;20214;-77
2022/07/07 08:52:30;;;;;;;0.40;0.40;;;;;20.80;98770.00;;;;5115705;28;20541;-78
2022/07/07 08:54:57;;;;;;;0.50;0.50;;;;;20.90;98769.00;;;;5098197;28;20784;-80
2022/07/07 08:57:25;;;;;;;0.70;0.70;;;;;21.20;98777.00;;;;5115919;28;20263;-80
2022/07/07 08:59:56;;;;;;;0.70;0.70;;;;;20.90;98784.00;;;;5116328;28;20676;-79
2022/07/07 09:02:25;;;;;;;1.50;0.87;;;;;20.90;98773.00;;;;5116214;28;20190;-78
2022/07/07 09:04:52;;;;;;;0.77;0.77;;;;;21.00;98796.00;;;;5116011;28;20284;-79
2022/07/07 09:07:20;;;;;;;0.60;0.60;;;;;20.60;98778.00;;;;5115745;28;20252;-79
2022/07/07 09:09:49;;;;;;;0.73;0.73;;;;;20.90;98786.00;;;;5116889;28;20202;-77
2022/07/07 09:12:17;;;;;;;0.80;0.80;;;;;20.70;98794.00;;;;5119448;28;20255;-74
2022/07/07 09:14:45;;;;;;;1.73;1.63;;;;;20.90;98805.00;;;;5099632;28;20225;-75
2022/07/07 09:17:17;;;;;;;0.90;0.90;;;;;20.70;98814.00;;;;5116090;28;20208;-75
2022/07/07 09:19:59;;;;;;;0.50;0.50;;;;;20.20;98826.00;;;;5116524;28;20201;-76
2022/07/07 09:22:44;;;;;;;0.57;0.57;;;;;20.00;98822.00;;;;5125757;28;20644;-76
2022/07/07 09:25:11;;;;;;;0.50;0.50;;;;;19.70;98813.00;;;;5126738;28;20208;-79
2022/07/07 09:27:53;;;;;;;0.70;0.70;;;;;19.80;98801.00;;;;5130835;28;20222;-80
2022/07/07 09:30:29;;;;;;;0.60;0.60;;;;;19.70;98799.00;;;;5123584;28;20186;-81
2022/07/07 09:32:56;;;;;;;0.60;0.60;;;;;19.40;98807.00;;;;5117702;28;20197;-83
2022/07/07 09:38:17;;;;;;;0.50;0.50;;;;;19.70;98813.00;;;;5115181;28;20205;-76
2022/07/07 09:40:55;;;;;;;0.70;0.70;;;;;19.80;98829.00;;;;5114088;28;20256;-76
2022/07/07 09:43:23;;;;;;;2.17;1.33;;;;;19.60;98829.00;;;;5115043;28;20220;-75
2022/07/07 09:46:06;;;;;;;0.80;0.80;;;;;19.90;98814.00;;;;5114739;28;20205;-73
2022/07/07 09:48:37;;;;;;;0.50;0.50;;;;;19.80;98818.00;;;;5096862;28;20226;-75
2022/07/07 09:51:15;;;;;;;0.80;0.80;;;;;19.90;98825.00;;;;5114905;28;20216;-76
2022/07/07 09:53:55;;;;;;;0.70;0.70;;;;;19.90;98815.00;;;;5114722;28;20233;-76
2022/07/07 09:56:23;;;;;;;0.70;0.70;;;;;20.10;98814.00;;;;5114696;28;20581;-74
2022/07/07 09:58:50;;;;;;;0.70;0.70;;;;;20.20;98810.00;;;;5114446;28;20255;-74
2022/07/07 10:01:18;;;;;;;0.50;0.50;;;;;20.70;98802.00;;;;5114605;28;20188;-79
2022/07/07 10:03:45;;;;;;;0.90;0.90;;;;;20.60;98808.00;;;;5096684;28;20618;-74
2022/07/07 10:06:12;;;;;;;0.60;0.60;;;;;20.50;98822.00;;;;5114406;28;20264;-75
2022/07/07 10:08:43;;;;;;;0.33;0.33;;;;;20.70;98819.00;;;;5114342;28;20225;-74
2022/07/07 10:11:13;;;;;;;0.50;0.50;;;;;20.90;98820.00;;;;5114522;28;20201;-74
2022/07/07 10:13:44;;;;;;;0.77;0.77;;;;;20.80;98826.00;;;;5114302;28;20251;-75
2022/07/07 10:16:10;;;;;;;0.97;0.50;;;;;20.80;98817.00;;;;5114269;28;20206;-75
2022/07/07 10:18:38;;;;;;;0.60;0.60;;;;;21.00;98818.00;;;;5114299;28;20225;-77
2022/07/07 10:21:06;;;;;;;0.60;0.60;;;;;21.10;98810.00;;;;5114232;28;20197;-74
2022/07/07 10:23:35;;;;;;;0.67;0.67;;;;;21.10;98811.00;;;;5114421;28;20372;-77
2022/07/07 10:26:03;;;;;;;0.93;0.80;;;;;21.10;98827.00;;;;5114275;28;20226;-74
2022/07/07 10:28:53;;;;;;;0.83;0.83;;;;;20.70;98844.00;;;;5115498;28;20224;-75
2022/07/07 10:31:21;;;;;;;0.43;0.43;;;;;20.70;98845.00;;;;5114455;28;20553;-75
2022/07/07 10:33:54;;;;;;;9.73;1.17;;;;;20.50;98829.00;;;;5096422;28;20190;-77
2022/07/07 10:36:21;;;;;;;1.50;1.13;;;;;20.60;98829.00;;;;5096079;28;20224;-75
2022/07/07 10:38:52;;;;;;;0.70;0.70;;;;;20.70;98834.00;;;;5113979;28;20225;-75
2022/07/07 10:41:24;;;;;;;0.50;0.50;;;;;20.80;98830.00;;;;5114090;28;20205;-79
2022/07/07 10:44:11;;;;;;;0.57;0.57;;;;;20.40;98835.00;;;;5113934;28;20214;-77
2022/07/07 10:46:39;;;;;;;0.50;0.50;;;;;20.40;98839.00;;;;5114245;28;20200;-76
2022/07/07 10:49:09;;;;;;;0.50;0.50;;;;;20.50;98837.00;;;;5117149;28;20218;-77
2022/07/07 10:51:53;;;;;;;0.80;0.73;;;;;20.40;98843.00;;;;5118854;28;20206;-73
2022/07/07 10:54:35;;;;;;;0.70;0.70;;;;;20.40;98849.00;;;;5119204;28;20197;-73
2022/07/07 10:57:14;;;;;;;0.43;0.43;;;;;20.10;98839.00;;;;5117584;28;20452;-75
2022/07/07 11:00:08;;;;;;;0.40;0.40;;;;;20.30;98851.00;;;;5117447;28;20216;-77
2022/07/07 11:02:37;;;;;;;0.70;0.70;;;;;20.30;98850.00;;;;5117445;28;20232;-79
2022/07/07 11:05:28;;;;;;;0.60;0.60;;;;;20.70;98843.00;;;;5117423;28;20190;-80
2022/07/07 11:08:15;;;;;;;0.57;0.57;;;;;20.60;98851.00;;;;5117528;28;20228;-79
2022/07/07 11:10:55;;;;;;;0.50;0.50;;;;;20.60;98841.00;;;;5117269;28;20259;-78
2022/07/07 11:13:28;;;;;;;0.60;0.60;;;;;20.70;98851.00;;;;5117437;28;20267;-78
2022/07/07 11:16:11;;;;;;;0.70;0.70;;;;;20.30;98852.00;;;;5117256;28;20233;-79
2022/07/07 11:18:38;;;;;;;0.50;0.50;;;;;20.20;98850.00;;;;5117431;28;20214;-78
2022/07/07 11:21:06;;;;;;;0.73;0.73;;;;;20.40;98846.00;;;;5117218;28;20198;-78
2022/07/07 11:23:43;;;;;;;0.50;0.50;;;;;20.60;98837.00;;;;5117218;28;20251;-80
2022/07/07 11:26:14;;;;;;;0.70;0.70;;;;;20.50;98845.00;;;;5117113;28;20205;-78
2022/07/07 11:28:41;;;;;;;0.50;0.50;;;;;20.40;98853.00;;;;5117023;28;20222;-79
2022/07/07 11:31:10;;;;;;;0.70;0.70;;;;;20.30;98844.00;;;;5117116;28;20194;-79
2022/07/07 11:33:40;;;;;;;0.63;0.63;;;;;20.30;98853.00;;;;5117016;28;20194;-76
2022/07/07 11:36:14;;;;;;;0.43;0.43;;;;;20.30;98845.00;;;;5116862;28;20206;-77
2022/07/07 11:38:44;;;;;;;0.70;0.70;;;;;20.40;98850.00;;;;5116860;28;20636;-78
2022/07/07 11:41:11;;;;;;;3.13;1.07;;;;;20.50;98847.00;;;;5116825;28;20222;-79
2022/07/07 11:43:38;;;;;;;0.70;0.70;;;;;20.30;98840.00;;;;5116835;28;20198;-76
2022/07/07 11:46:05;;;;;;;0.60;0.60;;;;;20.50;98844.00;;;;5116666;28;20206;-80
2022/07/07 11:48:41;;;;;;;0.60;0.60;;;;;20.50;98851.00;;;;5116497;28;20221;-75
2022/07/07 11:51:08;;;;;;;0.80;0.80;;;;;20.60;98846.00;;;;5116620;28;20632;-75
2022/07/07 11:53:35;;;;;;;0.80;0.80;;;;;20.50;98845.00;;;;5116556;28;20206;-77
2022/07/07 11:56:03;;;;;;;0.50;0.50;;;;;20.30;98845.00;;;;5116521;28;20190;-76
2022/07/07 11:58:30;;;;;;;0.77;0.77;;;;;20.40;98845.00;;;;5116798;28;20190;-78
2022/07/07 12:00:59;;;;;;;0.50;0.50;;;;;20.30;98846.00;;;;5116391;28;20210;-76
2022/07/07 12:03:32;;;;;;;0.87;0.87;;;;;20.30;98854.00;;;;5115722;28;20198;-79
2022/07/07 12:06:02;;;;;;;0.50;0.50;;;;;20.30;98850.00;;;;5116580;28;20198;-84
2022/07/07 12:08:36;;;;;;;1.03;1.03;;;;;20.20;98839.00;;;;5116318;28;20225;-77
2022/07/07 12:11:06;;;;;;;0.60;0.60;;;;;20.30;98844.00;;;;5116401;28;20190;-78
2022/07/07 12:13:33;;;;;;;0.40;0.40;;;;;20.30;98853.00;;;;5116353;28;20723;-78
2022/07/07 12:16:05;;;;;;;0.80;0.80;;;;;20.20;98854.00;;;;5116442;28;20645;-75
2022/07/07 12:18:35;;;;;;;1.00;1.00;;;;;20.10;98846.00;;;;5116426;28;20477;-75
2022/07/07 12:21:05;;;;;;;0.50;0.50;;;;;20.30;98860.00;;;;5116125;28;20512;-76
2022/07/07 12:23:37;;;;;;;0.50;0.50;;;;;20.30;98860.00;;;;5116130;28;20187;-73
2022/07/07 12:26:15;;;;;;;0.80;0.80;;;;;20.40;98847.00;;;;5116042;28;20225;-78
2022/07/07 12:28:45;;;;;;;0.70;0.70;;;;;20.50;98848.00;;;;5116080;28;20229;-88